sensor_id;sensor_type;location;lat;lon;timestamp;P1;durP1;ratioP1;P2;durP2;ratioP2
15153;SDS011;7677;41.896;25.004;2023-12-04T00:00:38;12.37;;;8.20;;
15153;SDS011;7677;41.896;25.004;2023-12-04T00:03:06;13.57;;;8.83;;
15153;SDS011;7677;41.896;25.004;2023-12-04T00:05:33;10.17;;;8.13;;
15153;SDS011;7677;41.896;25.004;2023-12-04T00:08:01;12.60;;;8.37;;
15153;SDS011;7677;41.896;25.004;2023-12-04T00:10:28;9.33;;;7.03;;
15153;SDS011;7677;41.896;25.004;2023-12-04T00:12:55;9.87;;;7.20;;
15153;SDS011;7677;41.896;25.004;2023-12-04T00:15:22;12.37;;;7.70;;
15153;SDS011;7677;41.896;25.004;2023-12-04T00:17:49;9.50;;;7.03;;
15153;SDS011;7677;41.896;25.004;2023-12-04T00:20:18;12.43;;;8.00;;
15153;SDS011;7677;41.896;25.004;2023-12-04T00:22:45;12.10;;;8.53;;
15153;SDS011;7677;41.896;25.004;2023-12-04T00:25:13;11.57;;;7.80;;
15153;SDS011;7677;41.896;25.004;2023-12-04T00:27:40;11.00;;;8.27;;
15153;SDS011;7677;41.896;25.004;2023-12-04T00:30:08;11.20;;;7.63;;
15153;SDS011;7677;41.896;25.004;2023-12-04T00:32:36;10.07;;;6.70;;
15153;SDS011;7677;41.896;25.004;2023-12-04T00:35:03;9.80;;;7.27;;
15153;SDS011;7677;41.896;25.004;2023-12-04T00:37:32;9.13;;;6.73;;
15153;SDS011;7677;41.896;25.004;2023-12-04T00:40:02;9.63;;;6.93;;
15153;SDS011;7677;41.896;25.004;2023-12-04T00:42:30;9.63;;;7.03;;
15153;SDS011;7677;41.896;25.004;2023-12-04T00:44:57;11.83;;;6.43;;
15153;SDS011;7677;41.896;25.004;2023-12-04T00:47:25;12.00;;;6.97;;
15153;SDS011;7677;41.896;25.004;2023-12-04T00:49:52;11.17;;;7.27;;
15153;SDS011;7677;41.896;25.004;2023-12-04T00:52:19;10.43;;;7.50;;
15153;SDS011;7677;41.896;25.004;2023-12-04T00:54:48;10.97;;;7.97;;
15153;SDS011;7677;41.896;25.004;2023-12-04T00:57:15;11.67;;;8.20;;
15153;SDS011;7677;41.896;25.004;2023-12-04T00:59:42;10.37;;;7.47;;
15153;SDS011;7677;41.896;25.004;2023-12-04T01:02:09;8.43;;;6.40;;
15153;SDS011;7677;41.896;25.004;2023-12-04T01:04:39;10.80;;;7.60;;
15153;SDS011;7677;41.896;25.004;2023-12-04T01:07:06;9.97;;;7.23;;
15153;SDS011;7677;41.896;25.004;2023-12-04T01:09:34;12.27;;;7.60;;
15153;SDS011;7677;41.896;25.004;2023-12-04T01:12:03;10.47;;;8.30;;
15153;SDS011;7677;41.896;25.004;2023-12-04T01:14:31;9.63;;;6.10;;
15153;SDS011;7677;41.896;25.004;2023-12-04T01:16:58;10.47;;;7.57;;
15153;SDS011;7677;41.896;25.004;2023-12-04T01:19:25;10.53;;;7.83;;
15153;SDS011;7677;41.896;25.004;2023-12-04T01:21:52;9.97;;;7.67;;
15153;SDS011;7677;41.896;25.004;2023-12-04T01:24:20;11.80;;;7.07;;
15153;SDS011;7677;41.896;25.004;2023-12-04T01:26:47;10.57;;;6.90;;
15153;SDS011;7677;41.896;25.004;2023-12-04T01:29:15;9.03;;;6.73;;
15153;SDS011;7677;41.896;25.004;2023-12-04T01:31:42;9.57;;;6.40;;
15153;SDS011;7677;41.896;25.004;2023-12-04T01:34:10;8.87;;;7.13;;
15153;SDS011;7677;41.896;25.004;2023-12-04T01:36:39;10.03;;;7.60;;
15153;SDS011;7677;41.896;25.004;2023-12-04T01:39:07;10.10;;;7.37;;
15153;SDS011;7677;41.896;25.004;2023-12-04T01:41:34;10.00;;;7.07;;
15153;SDS011;7677;41.896;25.004;2023-12-04T01:44:01;11.37;;;7.40;;
15153;SDS011;7677;41.896;25.004;2023-12-04T01:46:30;10.57;;;7.00;;
15153;SDS011;7677;41.896;25.004;2023-12-04T01:48:57;10.47;;;7.23;;
15153;SDS011;7677;41.896;25.004;2023-12-04T01:51:25;8.40;;;6.37;;
15153;SDS011;7677;41.896;25.004;2023-12-04T01:53:53;10.80;;;7.50;;
15153;SDS011;7677;41.896;25.004;2023-12-04T01:56:20;9.27;;;6.53;;
15153;SDS011;7677;41.896;25.004;2023-12-04T01:58:48;8.33;;;6.13;;
15153;SDS011;7677;41.896;25.004;2023-12-04T02:01:15;7.57;;;5.83;;
15153;SDS011;7677;41.896;25.004;2023-12-04T02:03:44;9.93;;;7.63;;
15153;SDS011;7677;41.896;25.004;2023-12-04T02:06:11;8.97;;;7.00;;
15153;SDS011;7677;41.896;25.004;2023-12-04T02:08:39;9.20;;;6.93;;
15153;SDS011;7677;41.896;25.004;2023-12-04T02:11:07;8.47;;;7.27;;
15153;SDS011;7677;41.896;25.004;2023-12-04T02:13:34;11.33;;;7.40;;
15153;SDS011;7677;41.896;25.004;2023-12-04T02:16:02;10.73;;;7.27;;
15153;SDS011;7677;41.896;25.004;2023-12-04T02:18:32;9.30;;;6.50;;
15153;SDS011;7677;41.896;25.004;2023-12-04T02:21:01;8.87;;;6.77;;
15153;SDS011;7677;41.896;25.004;2023-12-04T02:23:28;7.87;;;6.50;;
15153;SDS011;7677;41.896;25.004;2023-12-04T02:25:58;8.03;;;6.57;;
15153;SDS011;7677;41.896;25.004;2023-12-04T02:28:28;9.73;;;6.00;;
15153;SDS011;7677;41.896;25.004;2023-12-04T02:30:58;8.27;;;6.50;;
15153;SDS011;7677;41.896;25.004;2023-12-04T02:33:25;9.73;;;6.27;;
15153;SDS011;7677;41.896;25.004;2023-12-04T02:35:53;9.07;;;6.60;;
15153;SDS011;7677;41.896;25.004;2023-12-04T02:38:22;8.53;;;6.40;;
15153;SDS011;7677;41.896;25.004;2023-12-04T02:40:49;7.20;;;5.97;;
15153;SDS011;7677;41.896;25.004;2023-12-04T02:43:18;8.67;;;6.37;;
15153;SDS011;7677;41.896;25.004;2023-12-04T02:45:45;8.77;;;6.83;;
15153;SDS011;7677;41.896;25.004;2023-12-04T02:48:12;8.10;;;6.33;;
15153;SDS011;7677;41.896;25.004;2023-12-04T02:50:39;7.80;;;6.37;;
15153;SDS011;7677;41.896;25.004;2023-12-04T02:53:06;10.60;;;7.93;;
15153;SDS011;7677;41.896;25.004;2023-12-04T02:55:33;10.10;;;7.63;;
15153;SDS011;7677;41.896;25.004;2023-12-04T02:58:00;10.60;;;7.67;;
15153;SDS011;7677;41.896;25.004;2023-12-04T03:00:29;10.70;;;7.07;;
15153;SDS011;7677;41.896;25.004;2023-12-04T03:02:56;11.80;;;8.23;;
15153;SDS011;7677;41.896;25.004;2023-12-04T03:05:24;9.33;;;7.30;;
15153;SDS011;7677;41.896;25.004;2023-12-04T03:07:51;10.10;;;7.23;;
15153;SDS011;7677;41.896;25.004;2023-12-04T03:10:18;8.93;;;6.90;;
15153;SDS011;7677;41.896;25.004;2023-12-04T03:12:45;10.00;;;7.07;;
15153;SDS011;7677;41.896;25.004;2023-12-04T03:15:12;9.23;;;6.67;;
15153;SDS011;7677;41.896;25.004;2023-12-04T03:17:41;8.90;;;6.53;;
15153;SDS011;7677;41.896;25.004;2023-12-04T03:20:09;9.80;;;7.23;;
15153;SDS011;7677;41.896;25.004;2023-12-04T03:22:37;10.07;;;7.33;;
15153;SDS011;7677;41.896;25.004;2023-12-04T03:25:05;9.33;;;6.43;;
15153;SDS011;7677;41.896;25.004;2023-12-04T03:27:32;11.40;;;7.30;;
15153;SDS011;7677;41.896;25.004;2023-12-04T03:29:59;11.33;;;7.60;;
15153;SDS011;7677;41.896;25.004;2023-12-04T03:32:27;9.40;;;7.10;;
15153;SDS011;7677;41.896;25.004;2023-12-04T03:34:56;12.13;;;7.80;;
15153;SDS011;7677;41.896;25.004;2023-12-04T03:37:24;11.33;;;7.50;;
15153;SDS011;7677;41.896;25.004;2023-12-04T03:39:51;14.37;;;7.83;;
15153;SDS011;7677;41.896;25.004;2023-12-04T03:42:18;8.77;;;6.87;;
15153;SDS011;7677;41.896;25.004;2023-12-04T03:44:45;10.50;;;7.60;;
15153;SDS011;7677;41.896;25.004;2023-12-04T03:47:12;9.73;;;7.00;;
15153;SDS011;7677;41.896;25.004;2023-12-04T03:49:39;9.00;;;6.63;;
15153;SDS011;7677;41.896;25.004;2023-12-04T03:52:08;10.07;;;7.10;;
15153;SDS011;7677;41.896;25.004;2023-12-04T03:54:35;7.50;;;6.07;;
15153;SDS011;7677;41.896;25.004;2023-12-04T03:57:03;7.63;;;5.60;;
15153;SDS011;7677;41.896;25.004;2023-12-04T03:59:30;7.50;;;6.47;;
15153;SDS011;7677;41.896;25.004;2023-12-04T04:01:57;9.20;;;7.47;;
15153;SDS011;7677;41.896;25.004;2023-12-04T04:04:24;10.67;;;7.07;;
15153;SDS011;7677;41.896;25.004;2023-12-04T04:06:52;9.00;;;6.70;;
15153;SDS011;7677;41.896;25.004;2023-12-04T04:09:20;9.67;;;6.77;;
15153;SDS011;7677;41.896;25.004;2023-12-04T04:11:48;8.70;;;6.53;;
15153;SDS011;7677;41.896;25.004;2023-12-04T04:14:15;8.83;;;7.40;;
15153;SDS011;7677;41.896;25.004;2023-12-04T04:16:42;8.47;;;6.17;;
15153;SDS011;7677;41.896;25.004;2023-12-04T04:19:09;8.13;;;7.00;;
15153;SDS011;7677;41.896;25.004;2023-12-04T04:21:39;8.70;;;6.80;;
15153;SDS011;7677;41.896;25.004;2023-12-04T04:24:06;12.87;;;7.03;;
15153;SDS011;7677;41.896;25.004;2023-12-04T04:26:35;11.40;;;7.53;;
15153;SDS011;7677;41.896;25.004;2023-12-04T04:29:02;10.10;;;7.50;;
15153;SDS011;7677;41.896;25.004;2023-12-04T04:31:29;8.40;;;7.30;;
15153;SDS011;7677;41.896;25.004;2023-12-04T04:33:57;8.73;;;7.03;;
15153;SDS011;7677;41.896;25.004;2023-12-04T04:36:24;11.27;;;7.97;;
15153;SDS011;7677;41.896;25.004;2023-12-04T04:38:51;12.50;;;8.53;;
15153;SDS011;7677;41.896;25.004;2023-12-04T04:41:18;12.77;;;8.67;;
15153;SDS011;7677;41.896;25.004;2023-12-04T04:43:47;11.10;;;8.70;;
15153;SDS011;7677;41.896;25.004;2023-12-04T04:46:14;15.43;;;10.10;;
15153;SDS011;7677;41.896;25.004;2023-12-04T04:48:41;12.97;;;9.20;;
15153;SDS011;7677;41.896;25.004;2023-12-04T04:51:08;11.00;;;8.70;;
15153;SDS011;7677;41.896;25.004;2023-12-04T04:53:36;10.03;;;8.10;;
15153;SDS011;7677;41.896;25.004;2023-12-04T04:56:03;9.37;;;7.03;;
15153;SDS011;7677;41.896;25.004;2023-12-04T04:58:31;9.10;;;6.53;;
15153;SDS011;7677;41.896;25.004;2023-12-04T05:01:00;7.27;;;5.17;;
15153;SDS011;7677;41.896;25.004;2023-12-04T05:03:27;7.77;;;5.27;;
15153;SDS011;7677;41.896;25.004;2023-12-04T05:05:54;6.10;;;4.40;;
15153;SDS011;7677;41.896;25.004;2023-12-04T05:08:21;5.80;;;4.17;;
15153;SDS011;7677;41.896;25.004;2023-12-04T05:10:49;4.80;;;3.17;;
15153;SDS011;7677;41.896;25.004;2023-12-04T05:13:16;2.10;;;1.90;;
15153;SDS011;7677;41.896;25.004;2023-12-04T05:15:43;2.27;;;2.07;;
15153;SDS011;7677;41.896;25.004;2023-12-04T05:18:12;1.93;;;1.83;;
15153;SDS011;7677;41.896;25.004;2023-12-04T05:20:39;1.67;;;1.57;;
15153;SDS011;7677;41.896;25.004;2023-12-04T05:23:06;1.70;;;1.60;;
15153;SDS011;7677;41.896;25.004;2023-12-04T05:25:33;2.17;;;1.70;;
15153;SDS011;7677;41.896;25.004;2023-12-04T05:28:00;1.80;;;1.70;;
15153;SDS011;7677;41.896;25.004;2023-12-04T05:30:27;2.90;;;2.20;;
15153;SDS011;7677;41.896;25.004;2023-12-04T05:32:55;1.77;;;1.60;;
15153;SDS011;7677;41.896;25.004;2023-12-04T05:35:23;1.63;;;1.50;;
15153;SDS011;7677;41.896;25.004;2023-12-04T05:37:50;2.13;;;2.03;;
15153;SDS011;7677;41.896;25.004;2023-12-04T05:40:18;3.10;;;2.80;;
15153;SDS011;7677;41.896;25.004;2023-12-04T05:42:45;2.60;;;2.40;;
15153;SDS011;7677;41.896;25.004;2023-12-04T05:45:12;2.67;;;2.37;;
15153;SDS011;7677;41.896;25.004;2023-12-04T05:47:39;9.93;;;6.87;;
15153;SDS011;7677;41.896;25.004;2023-12-04T05:50:07;11.63;;;8.47;;
15153;SDS011;7677;41.896;25.004;2023-12-04T05:52:36;9.43;;;6.63;;
15153;SDS011;7677;41.896;25.004;2023-12-04T05:55:04;8.87;;;7.30;;
15153;SDS011;7677;41.896;25.004;2023-12-04T05:57:31;14.27;;;8.63;;
15153;SDS011;7677;41.896;25.004;2023-12-04T05:59:58;9.60;;;7.43;;
15153;SDS011;7677;41.896;25.004;2023-12-04T06:02:26;14.70;;;8.07;;
15153;SDS011;7677;41.896;25.004;2023-12-04T06:04:55;14.83;;;9.70;;
15153;SDS011;7677;41.896;25.004;2023-12-04T06:07:22;14.73;;;9.87;;
15153;SDS011;7677;41.896;25.004;2023-12-04T06:09:51;18.00;;;11.13;;
15153;SDS011;7677;41.896;25.004;2023-12-04T06:12:18;17.80;;;10.90;;
15153;SDS011;7677;41.896;25.004;2023-12-04T06:14:45;20.00;;;12.20;;
15153;SDS011;7677;41.896;25.004;2023-12-04T06:17:12;21.00;;;13.67;;
15153;SDS011;7677;41.896;25.004;2023-12-04T06:19:40;19.73;;;12.77;;
15153;SDS011;7677;41.896;25.004;2023-12-04T06:22:07;15.50;;;11.37;;
15153;SDS011;7677;41.896;25.004;2023-12-04T06:24:34;19.37;;;12.40;;
15153;SDS011;7677;41.896;25.004;2023-12-04T06:27:04;23.53;;;13.53;;
15153;SDS011;7677;41.896;25.004;2023-12-04T06:29:34;19.20;;;13.30;;
15153;SDS011;7677;41.896;25.004;2023-12-04T06:32:02;16.77;;;11.37;;
15153;SDS011;7677;41.896;25.004;2023-12-04T06:34:30;18.73;;;12.00;;
15153;SDS011;7677;41.896;25.004;2023-12-04T06:36:58;17.17;;;11.97;;
15153;SDS011;7677;41.896;25.004;2023-12-04T06:39:26;21.70;;;14.03;;
15153;SDS011;7677;41.896;25.004;2023-12-04T06:41:56;18.93;;;13.50;;
15153;SDS011;7677;41.896;25.004;2023-12-04T06:44:25;20.10;;;12.90;;
15153;SDS011;7677;41.896;25.004;2023-12-04T06:46:53;19.90;;;12.47;;
15153;SDS011;7677;41.896;25.004;2023-12-04T06:49:21;18.77;;;12.37;;
15153;SDS011;7677;41.896;25.004;2023-12-04T06:51:48;19.90;;;13.93;;
15153;SDS011;7677;41.896;25.004;2023-12-04T06:54:15;21.33;;;13.97;;
15153;SDS011;7677;41.896;25.004;2023-12-04T06:56:43;23.13;;;15.20;;
15153;SDS011;7677;41.896;25.004;2023-12-04T06:59:10;18.30;;;13.50;;
15153;SDS011;7677;41.896;25.004;2023-12-04T07:01:39;17.57;;;12.43;;
15153;SDS011;7677;41.896;25.004;2023-12-04T07:04:06;14.83;;;10.10;;
15153;SDS011;7677;41.896;25.004;2023-12-04T07:06:35;15.53;;;10.30;;
15153;SDS011;7677;41.896;25.004;2023-12-04T07:09:02;14.80;;;10.27;;
15153;SDS011;7677;41.896;25.004;2023-12-04T07:11:29;15.27;;;10.30;;
15153;SDS011;7677;41.896;25.004;2023-12-04T07:13:57;15.87;;;9.93;;
15153;SDS011;7677;41.896;25.004;2023-12-04T07:16:24;15.63;;;9.80;;
15153;SDS011;7677;41.896;25.004;2023-12-04T07:18:53;13.43;;;9.47;;
15153;SDS011;7677;41.896;25.004;2023-12-04T07:21:20;12.97;;;8.53;;
15153;SDS011;7677;41.896;25.004;2023-12-04T07:23:48;14.90;;;9.40;;
15153;SDS011;7677;41.896;25.004;2023-12-04T07:26:15;13.30;;;9.23;;
15153;SDS011;7677;41.896;25.004;2023-12-04T07:28:42;15.23;;;10.40;;
15153;SDS011;7677;41.896;25.004;2023-12-04T07:31:09;16.03;;;10.53;;
15153;SDS011;7677;41.896;25.004;2023-12-04T07:33:36;19.60;;;10.10;;
15153;SDS011;7677;41.896;25.004;2023-12-04T07:36:05;16.33;;;10.60;;
15153;SDS011;7677;41.896;25.004;2023-12-04T07:38:33;16.17;;;8.27;;
15153;SDS011;7677;41.896;25.004;2023-12-04T07:41:00;12.77;;;8.20;;
15153;SDS011;7677;41.896;25.004;2023-12-04T07:43:27;14.37;;;9.37;;
15153;SDS011;7677;41.896;25.004;2023-12-04T07:45:55;15.17;;;9.53;;
15153;SDS011;7677;41.896;25.004;2023-12-04T07:48:23;12.80;;;8.83;;
15153;SDS011;7677;41.896;25.004;2023-12-04T07:50:50;12.13;;;8.33;;
15153;SDS011;7677;41.896;25.004;2023-12-04T07:53:18;15.03;;;8.73;;
15153;SDS011;7677;41.896;25.004;2023-12-04T07:55:46;11.93;;;7.57;;
15153;SDS011;7677;41.896;25.004;2023-12-04T07:58:13;12.87;;;8.67;;
15153;SDS011;7677;41.896;25.004;2023-12-04T08:00:40;11.77;;;7.73;;
15153;SDS011;7677;41.896;25.004;2023-12-04T08:03:08;12.77;;;7.77;;
15153;SDS011;7677;41.896;25.004;2023-12-04T08:05:35;15.37;;;8.57;;
15153;SDS011;7677;41.896;25.004;2023-12-04T08:08:03;12.37;;;7.50;;
15153;SDS011;7677;41.896;25.004;2023-12-04T08:10:32;15.70;;;9.87;;
15153;SDS011;7677;41.896;25.004;2023-12-04T08:12:59;16.43;;;9.93;;
15153;SDS011;7677;41.896;25.004;2023-12-04T08:15:26;14.33;;;9.60;;
15153;SDS011;7677;41.896;25.004;2023-12-04T08:17:54;14.23;;;9.57;;
15153;SDS011;7677;41.896;25.004;2023-12-04T08:20:23;16.23;;;10.77;;
15153;SDS011;7677;41.896;25.004;2023-12-04T08:22:50;18.43;;;12.80;;
15153;SDS011;7677;41.896;25.004;2023-12-04T08:25:17;17.33;;;12.47;;
15153;SDS011;7677;41.896;25.004;2023-12-04T08:27:47;15.13;;;10.13;;
15153;SDS011;7677;41.896;25.004;2023-12-04T08:30:15;12.33;;;9.00;;
15153;SDS011;7677;41.896;25.004;2023-12-04T08:32:42;14.67;;;9.17;;
15153;SDS011;7677;41.896;25.004;2023-12-04T08:35:09;11.00;;;8.00;;
15153;SDS011;7677;41.896;25.004;2023-12-04T08:37:37;12.73;;;8.57;;
15153;SDS011;7677;41.896;25.004;2023-12-04T08:40:05;13.17;;;9.33;;
15153;SDS011;7677;41.896;25.004;2023-12-04T08:42:34;14.10;;;9.13;;
15153;SDS011;7677;41.896;25.004;2023-12-04T08:45:03;13.90;;;8.73;;
15153;SDS011;7677;41.896;25.004;2023-12-04T08:47:31;14.53;;;10.70;;
15153;SDS011;7677;41.896;25.004;2023-12-04T08:49:59;12.70;;;8.83;;
15153;SDS011;7677;41.896;25.004;2023-12-04T08:52:27;16.93;;;11.23;;
15153;SDS011;7677;41.896;25.004;2023-12-04T08:54:54;13.93;;;9.80;;
15153;SDS011;7677;41.896;25.004;2023-12-04T08:57:21;14.93;;;9.83;;
15153;SDS011;7677;41.896;25.004;2023-12-04T08:59:48;19.63;;;12.87;;
15153;SDS011;7677;41.896;25.004;2023-12-04T09:02:17;26.03;;;15.87;;
15153;SDS011;7677;41.896;25.004;2023-12-04T09:04:44;21.73;;;14.00;;
15153;SDS011;7677;41.896;25.004;2023-12-04T09:07:12;14.43;;;9.63;;
15153;SDS011;7677;41.896;25.004;2023-12-04T09:09:40;15.77;;;9.80;;
15153;SDS011;7677;41.896;25.004;2023-12-04T09:12:07;14.67;;;8.57;;
15153;SDS011;7677;41.896;25.004;2023-12-04T09:14:34;11.33;;;8.20;;
15153;SDS011;7677;41.896;25.004;2023-12-04T09:17:01;10.40;;;7.83;;
15153;SDS011;7677;41.896;25.004;2023-12-04T09:19:31;14.03;;;8.97;;
15153;SDS011;7677;41.896;25.004;2023-12-04T09:21:58;10.37;;;7.53;;
15153;SDS011;7677;41.896;25.004;2023-12-04T09:24:25;13.77;;;8.83;;
15153;SDS011;7677;41.896;25.004;2023-12-04T09:26:54;13.77;;;8.87;;
15153;SDS011;7677;41.896;25.004;2023-12-04T09:29:21;12.03;;;8.27;;
15153;SDS011;7677;41.896;25.004;2023-12-04T09:31:49;15.80;;;8.57;;
15153;SDS011;7677;41.896;25.004;2023-12-04T09:34:17;12.27;;;8.13;;
15153;SDS011;7677;41.896;25.004;2023-12-04T09:36:47;10.27;;;7.60;;
15153;SDS011;7677;41.896;25.004;2023-12-04T09:39:14;11.13;;;8.50;;
15153;SDS011;7677;41.896;25.004;2023-12-04T09:41:42;12.40;;;7.73;;
15153;SDS011;7677;41.896;25.004;2023-12-04T09:44:09;12.40;;;8.67;;
15153;SDS011;7677;41.896;25.004;2023-12-04T09:46:36;12.17;;;8.30;;
15153;SDS011;7677;41.896;25.004;2023-12-04T09:49:04;18.23;;;11.50;;
15153;SDS011;7677;41.896;25.004;2023-12-04T09:51:32;18.07;;;12.00;;
15153;SDS011;7677;41.896;25.004;2023-12-04T09:54:02;16.63;;;11.20;;
15153;SDS011;7677;41.896;25.004;2023-12-04T09:56:30;14.40;;;9.07;;
15153;SDS011;7677;41.896;25.004;2023-12-04T09:58:59;11.83;;;8.40;;
15153;SDS011;7677;41.896;25.004;2023-12-04T10:01:28;14.07;;;7.57;;
15153;SDS011;7677;41.896;25.004;2023-12-04T10:03:56;10.50;;;6.93;;
15153;SDS011;7677;41.896;25.004;2023-12-04T10:06:24;9.00;;;6.57;;
15153;SDS011;7677;41.896;25.004;2023-12-04T10:08:54;11.47;;;8.40;;
15153;SDS011;7677;41.896;25.004;2023-12-04T10:11:25;21.70;;;13.83;;
15153;SDS011;7677;41.896;25.004;2023-12-04T10:13:53;14.30;;;9.70;;
15153;SDS011;7677;41.896;25.004;2023-12-04T10:16:33;11.83;;;7.60;;
15153;SDS011;7677;41.896;25.004;2023-12-04T10:19:17;10.90;;;6.10;;
15153;SDS011;7677;41.896;25.004;2023-12-04T10:21:47;14.03;;;8.27;;
15153;SDS011;7677;41.896;25.004;2023-12-04T10:24:28;11.30;;;7.00;;
15153;SDS011;7677;41.896;25.004;2023-12-04T10:26:58;11.37;;;6.83;;
15153;SDS011;7677;41.896;25.004;2023-12-04T10:29:26;9.30;;;6.13;;
15153;SDS011;7677;41.896;25.004;2023-12-04T10:31:55;9.23;;;6.57;;
15153;SDS011;7677;41.896;25.004;2023-12-04T10:34:26;13.80;;;7.77;;
15153;SDS011;7677;41.896;25.004;2023-12-04T10:36:53;19.70;;;9.50;;
15153;SDS011;7677;41.896;25.004;2023-12-04T10:39:20;10.70;;;7.47;;
15153;SDS011;7677;41.896;25.004;2023-12-04T10:42:00;10.00;;;6.40;;
15153;SDS011;7677;41.896;25.004;2023-12-04T10:44:28;8.90;;;7.17;;
15153;SDS011;7677;41.896;25.004;2023-12-04T10:46:56;6.80;;;5.80;;
15153;SDS011;7677;41.896;25.004;2023-12-04T10:49:26;8.63;;;6.13;;
15153;SDS011;7677;41.896;25.004;2023-12-04T10:51:55;8.93;;;5.80;;
15153;SDS011;7677;41.896;25.004;2023-12-04T10:54:24;8.97;;;6.63;;
15153;SDS011;7677;41.896;25.004;2023-12-04T10:56:52;16.97;;;6.27;;
15153;SDS011;7677;41.896;25.004;2023-12-04T10:59:25;8.87;;;5.60;;
15153;SDS011;7677;41.896;25.004;2023-12-04T11:01:53;8.63;;;6.20;;
15153;SDS011;7677;41.896;25.004;2023-12-04T11:04:21;10.27;;;6.77;;
15153;SDS011;7677;41.896;25.004;2023-12-04T11:06:52;9.20;;;6.37;;
15153;SDS011;7677;41.896;25.004;2023-12-04T11:09:19;7.87;;;5.87;;
15153;SDS011;7677;41.896;25.004;2023-12-04T11:11:53;8.93;;;5.73;;
15153;SDS011;7677;41.896;25.004;2023-12-04T11:14:25;11.13;;;6.60;;
15153;SDS011;7677;41.896;25.004;2023-12-04T11:16:57;10.27;;;6.60;;
15153;SDS011;7677;41.896;25.004;2023-12-04T11:19:29;7.60;;;5.73;;
15153;SDS011;7677;41.896;25.004;2023-12-04T11:21:59;12.27;;;7.37;;
15153;SDS011;7677;41.896;25.004;2023-12-04T11:24:27;8.10;;;6.77;;
15153;SDS011;7677;41.896;25.004;2023-12-04T11:26:54;7.20;;;5.73;;
15153;SDS011;7677;41.896;25.004;2023-12-04T11:29:21;7.30;;;5.33;;
15153;SDS011;7677;41.896;25.004;2023-12-04T11:31:51;8.63;;;6.70;;
15153;SDS011;7677;41.896;25.004;2023-12-04T11:34:18;9.73;;;5.93;;
15153;SDS011;7677;41.896;25.004;2023-12-04T11:36:45;8.37;;;5.57;;
15153;SDS011;7677;41.896;25.004;2023-12-04T11:39:13;6.57;;;5.00;;
15153;SDS011;7677;41.896;25.004;2023-12-04T11:41:40;7.10;;;5.33;;
15153;SDS011;7677;41.896;25.004;2023-12-04T11:44:13;8.27;;;5.87;;
15153;SDS011;7677;41.896;25.004;2023-12-04T11:49:29;7.43;;;4.63;;
15153;SDS011;7677;41.896;25.004;2023-12-04T11:51:57;8.83;;;6.23;;
15153;SDS011;7677;41.896;25.004;2023-12-04T11:54:25;9.90;;;6.37;;
15153;SDS011;7677;41.896;25.004;2023-12-04T11:57:00;9.33;;;7.77;;
15153;SDS011;7677;41.896;25.004;2023-12-04T11:59:43;10.10;;;7.40;;
15153;SDS011;7677;41.896;25.004;2023-12-04T12:02:11;8.67;;;6.33;;
15153;SDS011;7677;41.896;25.004;2023-12-04T12:04:39;20.90;;;13.53;;
15153;SDS011;7677;41.896;25.004;2023-12-04T12:07:06;14.10;;;9.67;;
15153;SDS011;7677;41.896;25.004;2023-12-04T12:09:33;9.40;;;6.43;;
15153;SDS011;7677;41.896;25.004;2023-12-04T12:12:02;9.53;;;6.07;;
15153;SDS011;7677;41.896;25.004;2023-12-04T12:14:30;9.10;;;6.07;;
15153;SDS011;7677;41.896;25.004;2023-12-04T12:16:58;10.47;;;6.87;;
15153;SDS011;7677;41.896;25.004;2023-12-04T12:19:27;10.70;;;7.13;;
15153;SDS011;7677;41.896;25.004;2023-12-04T12:21:55;9.47;;;6.60;;
15153;SDS011;7677;41.896;25.004;2023-12-04T12:24:23;8.77;;;6.50;;
15153;SDS011;7677;41.896;25.004;2023-12-04T12:26:51;9.70;;;6.03;;
15153;SDS011;7677;41.896;25.004;2023-12-04T12:29:18;9.83;;;6.53;;
15153;SDS011;7677;41.896;25.004;2023-12-04T12:31:46;9.53;;;7.13;;
15153;SDS011;7677;41.896;25.004;2023-12-04T12:34:13;9.23;;;6.20;;
15153;SDS011;7677;41.896;25.004;2023-12-04T12:36:41;10.23;;;7.20;;
15153;SDS011;7677;41.896;25.004;2023-12-04T12:39:09;9.10;;;6.67;;
15153;SDS011;7677;41.896;25.004;2023-12-04T12:41:37;10.33;;;7.40;;
15153;SDS011;7677;41.896;25.004;2023-12-04T12:44:04;13.30;;;7.93;;
15153;SDS011;7677;41.896;25.004;2023-12-04T12:46:32;10.23;;;7.37;;
15153;SDS011;7677;41.896;25.004;2023-12-04T12:49:00;10.70;;;7.27;;
15153;SDS011;7677;41.896;25.004;2023-12-04T12:51:27;8.83;;;7.50;;
15153;SDS011;7677;41.896;25.004;2023-12-04T12:53:58;13.43;;;9.93;;
15153;SDS011;7677;41.896;25.004;2023-12-04T12:56:25;17.50;;;13.00;;
15153;SDS011;7677;41.896;25.004;2023-12-04T12:58:52;44.10;;;22.63;;
15153;SDS011;7677;41.896;25.004;2023-12-04T13:01:22;23.23;;;13.53;;
15153;SDS011;7677;41.896;25.004;2023-12-04T13:03:50;20.13;;;13.07;;
15153;SDS011;7677;41.896;25.004;2023-12-04T13:06:17;14.67;;;9.93;;
15153;SDS011;7677;41.896;25.004;2023-12-04T13:08:45;9.60;;;7.87;;
15153;SDS011;7677;41.896;25.004;2023-12-04T13:11:13;10.27;;;7.67;;
15153;SDS011;7677;41.896;25.004;2023-12-04T13:13:40;11.67;;;7.40;;
15153;SDS011;7677;41.896;25.004;2023-12-04T13:16:08;11.63;;;7.70;;
15153;SDS011;7677;41.896;25.004;2023-12-04T13:18:36;10.77;;;7.77;;
15153;SDS011;7677;41.896;25.004;2023-12-04T13:21:04;10.77;;;8.20;;
15153;SDS011;7677;41.896;25.004;2023-12-04T13:23:35;12.77;;;9.33;;
15153;SDS011;7677;41.896;25.004;2023-12-04T13:26:03;11.50;;;8.10;;
15153;SDS011;7677;41.896;25.004;2023-12-04T13:28:32;13.60;;;9.13;;
15153;SDS011;7677;41.896;25.004;2023-12-04T13:31:00;12.57;;;9.23;;
15153;SDS011;7677;41.896;25.004;2023-12-04T13:33:27;15.20;;;10.43;;
15153;SDS011;7677;41.896;25.004;2023-12-04T13:35:54;13.33;;;9.47;;
15153;SDS011;7677;41.896;25.004;2023-12-04T13:38:22;14.67;;;9.97;;
15153;SDS011;7677;41.896;25.004;2023-12-04T13:40:49;11.80;;;9.23;;
15153;SDS011;7677;41.896;25.004;2023-12-04T13:43:25;13.67;;;9.23;;
15153;SDS011;7677;41.896;25.004;2023-12-04T13:46:11;13.63;;;9.17;;
15153;SDS011;7677;41.896;25.004;2023-12-04T13:48:38;13.60;;;9.57;;
15153;SDS011;7677;41.896;25.004;2023-12-04T13:51:06;16.67;;;10.90;;
15153;SDS011;7677;41.896;25.004;2023-12-04T13:53:35;12.87;;;8.17;;
15153;SDS011;7677;41.896;25.004;2023-12-04T13:56:05;12.67;;;8.83;;
15153;SDS011;7677;41.896;25.004;2023-12-04T13:58:50;11.80;;;8.80;;
15153;SDS011;7677;41.896;25.004;2023-12-04T14:01:23;11.17;;;8.10;;
15153;SDS011;7677;41.896;25.004;2023-12-04T14:03:54;13.33;;;9.13;;
15153;SDS011;7677;41.896;25.004;2023-12-04T14:06:26;14.63;;;9.37;;
15153;SDS011;7677;41.896;25.004;2023-12-04T14:08:54;12.50;;;7.47;;
15153;SDS011;7677;41.896;25.004;2023-12-04T14:11:21;11.60;;;8.20;;
15153;SDS011;7677;41.896;25.004;2023-12-04T14:13:49;10.47;;;7.43;;
15153;SDS011;7677;41.896;25.004;2023-12-04T14:16:16;11.37;;;8.27;;
15153;SDS011;7677;41.896;25.004;2023-12-04T14:18:45;12.63;;;8.77;;
15153;SDS011;7677;41.896;25.004;2023-12-04T14:21:12;12.23;;;8.53;;
15153;SDS011;7677;41.896;25.004;2023-12-04T14:23:40;15.60;;;8.53;;
15153;SDS011;7677;41.896;25.004;2023-12-04T14:26:07;15.67;;;9.87;;
15153;SDS011;7677;41.896;25.004;2023-12-04T14:28:34;20.20;;;13.93;;
15153;SDS011;7677;41.896;25.004;2023-12-04T14:31:02;18.33;;;12.57;;
15153;SDS011;7677;41.896;25.004;2023-12-04T14:33:30;30.10;;;17.77;;
15153;SDS011;7677;41.896;25.004;2023-12-04T14:35:58;22.83;;;14.30;;
15153;SDS011;7677;41.896;25.004;2023-12-04T14:38:26;16.30;;;11.73;;
15153;SDS011;7677;41.896;25.004;2023-12-04T14:40:53;14.67;;;9.70;;
15153;SDS011;7677;41.896;25.004;2023-12-04T14:43:20;15.32;;;11.90;;